^^
Station Historical Data
Daily Summary for March 4, 2017 Units:  English    Metric   Both
« Previous Day
Next Day »
Daily Weekly Monthly Yearly Custom
  High: Low: Average:
Temperature: 26.2 °F 13.9 °F 20.4 °F
Dew Point: 9.1 °F -5.6 °F 2.9 °F
Humidity: 63% 30% 47%
Wind Speed: 10.0mph 0.0mph 2.9mph
Wind Gust: 25.0mph - -
Wind- - SSW
Pressure: 30.62 in 30.46 in -
Precipitation: 0.00 in    
Historical Graphs
 
 
Tabular Data for March 4, 2017
Time Temperature Dew Point Pressure Wind Wind Speed Wind Gust Humidity Rainfall Rate (Hourly) Conditions
00:00 20.8 °F 5.1 °F 30.46 in SSW 3.0 mph 12.0 mph 50% 0.00 in CLR
00:15 20.5 °F 4.4 °F 30.46 in NNE 3.0 mph 10.0 mph 49% 0.00 in CLR
00:30 20.5 °F 4.8 °F 30.46 in SE 1.0 mph 10.0 mph 50% 0.00 in CLR
00:45 20.4 °F 5.1 °F 30.47 in NE 1.0 mph 9.0 mph 51% 0.00 in CLR
01:00 20.2 °F 4.9 °F 30.47 in WSW 2.0 mph 13.0 mph 51% 0.00 in CLR
02:15 19.1 °F 5.2 °F 30.48 in West 2.0 mph 10.0 mph 54% 0.00 in CLR
02:30 18.9 °F 5.8 °F 30.48 in WSW 2.0 mph 9.0 mph 56% 0.00 in CLR
02:45 18.8 °F 5.7 °F 30.47 in West 1.0 mph 12.0 mph 56% 0.00 in CLR
03:00 18.8 °F 6.1 °F 30.48 in North 1.0 mph 12.0 mph 57% 0.00 in CLR
03:15 18.6 °F 5.5 °F 30.48 in NE 1.0 mph 12.0 mph 56% 0.00 in CLR
03:30 18.6 °F 5.9 °F 30.48 in NNW 1.0 mph 9.0 mph 57% 0.00 in CLR
03:45 18.3 °F 5.6 °F 30.48 in Calm   10.0 mph 57% 0.00 in CLR
04:00 18.2 °F 5.9 °F 30.49 in Calm   8.0 mph 58% 0.00 in CLR
04:15 18.1 °F 5.8 °F 30.49 in North 2.0 mph 9.0 mph 58% 0.00 in CLR
04:45 18.0 °F 6.1 °F 30.48 in East 1.0 mph 6.0 mph 59% 0.00 in CLR
05:00 17.8 °F 5.5 °F 30.49 in North 1.0 mph 15.0 mph 58% 0.00 in CLR
05:15 17.7 °F 6.2 °F 30.50 in WNW 1.0 mph 9.0 mph 60% 0.00 in CLR
05:30 17.5 °F 6.3 °F 30.50 in WSW 1.0 mph 7.0 mph 61% 0.00 in CLR
05:45 17.4 °F 6.6 °F 30.50 in WNW 2.0 mph 8.0 mph 62% 0.00 in CLR
06:00 17.1 °F 6.0 °F 30.50 in Calm   12.0 mph 61% 0.00 in CLR
06:15 17.1 °F 6.3 °F 30.50 in WSW 1.0 mph 7.0 mph 62% 0.00 in FEW
06:30 17.1 °F 6.7 °F 30.51 in South 2.0 mph 10.0 mph 63% 0.00 in FEW
06:45 17.0 °F 6.6 °F 30.52 in SE 1.0 mph 10.0 mph 63% 0.00 in FEW
07:00 17.1 °F 6.7 °F 30.52 in Calm   7.0 mph 63% 0.00 in FEW
07:15 17.2 °F 6.8 °F 30.53 in Calm   8.0 mph 63% 0.00 in CLR
07:30 17.5 °F 6.7 °F 30.53 in SSW 2.0 mph 15.0 mph 62% 0.00 in CLR
07:45 17.8 °F 6.6 °F 30.53 in SW 1.0 mph 12.0 mph 61% 0.00 in CLR
08:00 18.1 °F 6.9 °F 30.53 in SSW 1.0 mph 6.0 mph 61% 0.00 in CLR
08:15 18.4 °F 6.8 °F 30.53 in SW 1.0 mph 10.0 mph 60% 0.00 in BKN
08:30 19.3 °F 7.7 °F 30.53 in WSW 2.0 mph 9.0 mph 60% 0.00 in BKN
08:45 20.2 °F 8.1 °F 30.52 in Calm   6.0 mph 59% 0.00 in BKN
09:00 21.0 °F 7.3 °F 30.52 in Calm   8.0 mph 55% 0.00 in BKN
09:15 21.3 °F 6.8 °F 30.52 in West 3.0 mph 13.0 mph 53% 0.00 in BKN
09:30 21.4 °F 7.3 °F 30.52 in Calm   16.0 mph 54% 0.00 in BKN
09:45 22.2 °F 8.5 °F 30.52 in ESE 1.0 mph 12.0 mph 55% 0.00 in BKN
10:00 22.2 °F 8.5 °F 30.52 in NW 2.0 mph 13.0 mph 55% 0.00 in BKN
10:15 22.5 °F 8.7 °F 30.51 in NE 2.0 mph 12.0 mph 55% 0.00 in BKN
10:30 22.7 °F 8.9 °F 30.51 in NNE 2.0 mph 12.0 mph 55% 0.00 in BKN
10:45 22.7 °F 9.0 °F 30.51 in WSW 3.0 mph 15.0 mph 55% 0.00 in BKN
11:00 23.5 °F 6.7 °F 30.51 in NNE 2.0 mph 13.0 mph 48% 0.00 in BKN
11:15 23.7 °F 9.1 °F 30.51 in WSW 3.0 mph 21.0 mph 53% 0.00 in SCT
11:30 24.1 °F 7.7 °F 30.50 in NNW 1.0 mph 17.0 mph 49% 0.00 in SCT
11:45 24.5 °F 7.1 °F 30.50 in NNW 3.0 mph 15.0 mph 47% 0.00 in SCT
12:00 24.0 °F 8.9 °F 30.50 in WNW 3.0 mph 13.0 mph 52% 0.00 in SCT
12:15 24.0 °F 7.6 °F 30.49 in North 5.0 mph 16.0 mph 49% 0.00 in -SN
12:30 24.2 °F 8.2 °F 30.49 in North 2.0 mph 13.0 mph 50% 0.00 in -SN
12:45 24.2 °F 7.3 °F 30.49 in NW 6.0 mph 15.0 mph 48% 0.00 in -SN
13:00 24.4 °F 7.9 °F 30.48 in West 6.0 mph 16.0 mph 49% 0.00 in -SN
13:15 25.4 °F 6.9 °F 30.48 in NW 5.0 mph 22.0 mph 45% 0.00 in BKN
13:30 24.8 °F 6.4 °F 30.48 in NNE 7.0 mph 20.0 mph 45% 0.00 in BKN
13:45 24.3 °F 6.9 °F 30.48 in North 6.0 mph 15.0 mph 47% 0.00 in BKN
14:00 25.9 °F 7.4 °F 30.47 in NW 3.0 mph 18.0 mph 45% 0.00 in BKN
14:15 25.8 °F 4.8 °F 30.48 in NNE 5.0 mph 18.0 mph 40% 0.00 in BKN
14:30 24.8 °F 4.9 °F 30.48 in NNE 3.0 mph 17.0 mph 42% 0.00 in BKN
14:45 26.2 °F 4.6 °F 30.48 in NNW 3.0 mph 20.0 mph 39% 0.00 in BKN
15:00 25.4 °F 2.8 °F 30.48 in North 5.0 mph 17.0 mph 37% 0.00 in BKN
15:15 25.7 °F 1.2 °F 30.48 in North 2.0 mph 20.0 mph 34% 0.00 in SCT
15:30 25.8 °F -1.4 °F 30.48 in North 5.0 mph 25.0 mph 30% 0.00 in SCT
15:45 25.7 °F -0.8 °F 30.49 in North 6.0 mph 18.0 mph 31% 0.00 in SCT
16:00 25.7 °F -0.1 °F 30.49 in NNE 10.0 mph 21.0 mph 32% 0.00 in SCT
16:15 25.5 °F -1.0 °F 30.49 in NNE 6.0 mph 18.0 mph 31% 0.00 in FEW
16:30 25.1 °F -1.3 °F 30.50 in North 3.0 mph 16.0 mph 31% 0.00 in FEW
16:45 24.6 °F -2.4 °F 30.51 in North 10.0 mph 20.0 mph 30% 0.00 in FEW
17:00 24.0 °F -2.3 °F 30.51 in North 6.0 mph 18.0 mph 31% 0.00 in FEW
17:15 23.7 °F -1.9 °F 30.52 in NNW 7.0 mph 20.0 mph 32% 0.00 in FEW
17:30 23.4 °F -1.5 °F 30.53 in NNW 3.0 mph 17.0 mph 33% 0.00 in FEW
17:45 22.5 °F -1.7 °F 30.54 in North 3.0 mph 18.0 mph 34% 0.00 in FEW
18:00 21.8 °F -2.3 °F 30.55 in NNE 6.0 mph 17.0 mph 34% 0.00 in FEW
18:15 21.4 °F -1.5 °F 30.56 in North 5.0 mph 15.0 mph 36% 0.00 in FEW
18:30 20.8 °F -3.2 °F 30.56 in NNE 3.0 mph 20.0 mph 34% 0.00 in FEW
18:45 20.4 °F -3.6 °F 30.56 in ENE 3.0 mph 14.0 mph 34% 0.00 in FEW
19:00 20.0 °F -2.7 °F 30.57 in North 6.0 mph 18.0 mph 36% 0.00 in FEW
19:15 19.7 °F -3.0 °F 30.57 in NNW 2.0 mph 18.0 mph 36% 0.00 in CLR
19:30 19.3 °F -2.8 °F 30.58 in NW 3.0 mph 15.0 mph 37% 0.00 in CLR
19:45 19.0 °F -2.5 °F 30.58 in North 1.0 mph 14.0 mph 38% 0.00 in CLR
20:00 18.5 °F -3.5 °F 30.58 in NNE 3.0 mph 15.0 mph 37% 0.00 in CLR
20:15 17.9 °F -4.6 °F 30.58 in NNE 1.0 mph 18.0 mph 36% 0.00 in CLR
20:30 17.5 °F -3.8 °F 30.59 in NNW 7.0 mph 18.0 mph 38% 0.00 in CLR
20:45 17.1 °F -4.2 °F 30.60 in North 5.0 mph 16.0 mph 38% 0.00 in CLR
21:00 16.7 °F -3.4 °F 30.60 in North 5.0 mph 15.0 mph 40% 0.00 in CLR
21:15 16.3 °F -4.4 °F 30.61 in NNE 1.0 mph 18.0 mph 39% 0.00 in CLR
21:30 16.0 °F -4.6 °F 30.61 in North 7.0 mph 17.0 mph 39% 0.00 in CLR
21:45 15.9 °F -5.3 °F 30.61 in North 5.0 mph 16.0 mph 38% 0.00 in CLR
22:00 15.5 °F -5.6 °F 30.61 in NNW 2.0 mph 13.0 mph 38% 0.00 in CLR
22:15 15.3 °F -4.3 °F 30.62 in North 5.0 mph 14.0 mph 41% 0.00 in CLR
22:30 14.9 °F -4.6 °F 30.62 in North 3.0 mph 14.0 mph 41% 0.00 in CLR
22:45 14.7 °F -4.8 °F 30.62 in NNE 3.0 mph 12.0 mph 41% 0.00 in CLR
23:00 14.4 °F -4.6 °F 30.61 in NW 3.0 mph 16.0 mph 42% 0.00 in CLR
23:15 14.2 °F -3.3 °F 30.61 in North 2.0 mph 16.0 mph 45% 0.00 in CLR
23:30 14.0 °F -3.5 °F 30.61 in North 3.0 mph 12.0 mph 45% 0.00 in CLR
23:45 13.9 °F -4.0 °F 30.62 in North 5.0 mph 12.0 mph 44% 0.00 in CLR
TarryTown NY Weather
Compliments of Weather Underground - 1.5 mb